メインページ
METAR-TAF:

METAR-TAF

空港 :

ハノイ, ベトナム

ノイバイ国際空港

緯度: 21-01N, 経度: 105-48E, 海抜: 6m

現時点の気象観測

当レポートは15分前の12:00(UTC)に作成
の風 3kt
気温 18°C
湿度 83%
気圧 1017 hPa
視程: 3700m
高度1200ftの千切れ雲あり

METAR: VVNB 241200Z 08003KT 3700 BR BKN012 18/15 Q1017 NOSIG

時間: 19:15 (12:15 UTC)

予報

当レポートは1時間15分前の11:00(UTC)に作成
予報は24日の 12時(UTC)から 25日の 12時(UTC)まで有効
の風 5kt
視程: 2000m
高度1200ftの雲はほとんどない
高度1500ftの千切れ雲あり
24日の 12時(UTC)から 24日の 16時(UTC)まで一時的に
視程: 1400m
高度400ftの雲は散在している
高度1200ftの千切れ雲あり
霧雨, 靄
24日の 21時(UTC)から 25日の 01時(UTC)まで一時的に
視程: 1200m
高度300ftの雲は散在している
高度1000ftの千切れ雲あり
霧雨, 靄
25日の 03時(UTC)から 25日の 04時(UTC)まで徐々に
北/北東の風 8kt
視程: 6000m
高度1000ftの雲はほとんどない
高度4000ftの千切れ雲あり

TAF: VVNB 241100Z 2412/2512 10005KT 2000 BR FEW012 BKN015 TEMPO 2412/2416 1400 DZ BR SCT004 BKN012 TEMPO 2421/2501 1200 DZ BR SCT003 BKN010 BECMG 2503/2504 02008KT 6000 NSW FEW010 BKN040

4,000以上の空港の気象観測と天気予報(METAR報とTAF報)

利用可能な観測所は地図上に黄色い丸と赤い丸で示す。

丸の上にカーソルを重ねると観測所名を参照できる。

次にクリックすると気象観測と天気予報を参照できる。

マップの切り替え:黒色「×」印の緑ボタンをクリックして拡大、「-」印の緑ボタンをクリックして縮小、緑色の三角印をクリックして隣りの地図に切り替え


METAR-TAF: